FWCO2: Wolf Creek nr Ft. Supply 9S

Data processed at Wed Jul 24 2019 23:50


All information presented herein is the property of the government of the United States of America and may be revised or deleted at any time without prior notice.
Dissemination of this information without the expressed written consent of the Public Affairs Office, Tulsa District U.S. Army Corps of Engineers is strictly prohibited.
These data are gathered electronically and, as presented, have not undergone any form of quality control. These data are not guaranteed to be valid or correct.
Go to home page.
Go to station list.
Go to home page.

Upstream stations:

Downstream station:
Previous Day
Next Day
Current Day
    
SHEF ID:       FWCO2     Wolf Creek nr Ft. Supply 9S
STATION TYPE:  

               PRECIP     STAGE  RIV-FLOW   VOLTAGE  BAT-LOAD
                   in        ft       cfs      volt      volt
              Ccp-Rev   Ccp-Rev   Ccp-Rev   Ccp-Rev   Ccp-Rev
(US/Central)
07/24 00:00      0.00      7.32       117     12.65     12.57
07/24 01:00      0.00      7.23       110     12.57     12.57
07/24 02:00      0.00      7.22       109     12.57     12.49
07/24 03:00      0.00      7.25       111     12.57     12.49
07/24 04:00      0.00      7.28       114     12.57     12.49
07/24 05:00      0.00      7.28       114     12.57     12.49
07/24 06:00      0.00      7.25       111     12.49     12.41
07/24 07:00      0.00      7.30       116     12.49     12.41
07/24 08:00      0.00      7.27       113     12.65     12.41
07/24 09:00      0.00      7.29       115     12.89     12.57
07/24 10:00      0.00      7.29       115     14.16     12.81
07/24 11:00      0.00      7.24       110     14.00     14.08
07/24 12:00      0.00      7.28       114     14.00     14.00
07/24 13:00      0.00      7.32       117     13.92     13.92
07/24 14:00      0.00      7.23       110     13.84     12.97
07/24 15:00      0.00      7.23       110     13.76     13.13
07/24 16:00      0.00      7.21       108     13.68     12.89
07/24 17:00      0.00      7.19       106     13.68     12.89
07/24 18:00      0.00      7.22       109     13.68     12.81
07/24 19:00      0.00      7.28       114     13.60     12.73
07/24 20:00      0.00      7.21       108     12.73     12.73
07/24 21:00      0.00      7.22       109     12.65     12.65
07/24 22:00      0.00      7.21       108     12.65     12.57
07/24 23:00      0.00      7.18       105     12.65     12.57